sensor_id;sensor_type;location;lat;lon;timestamp;temperature;humidity
17442;DHT22;8838;50.144;8.176;2022-12-18T00:01:17;-7.70;99.90
17442;DHT22;8838;50.144;8.176;2022-12-18T00:03:45;-7.80;99.90
17442;DHT22;8838;50.144;8.176;2022-12-18T00:06:12;-7.90;99.90
17442;DHT22;8838;50.144;8.176;2022-12-18T00:08:39;-7.90;99.90
17442;DHT22;8838;50.144;8.176;2022-12-18T00:11:08;-7.90;99.90
17442;DHT22;8838;50.144;8.176;2022-12-18T00:13:35;-7.80;99.90
17442;DHT22;8838;50.144;8.176;2022-12-18T00:16:03;-7.80;99.90
17442;DHT22;8838;50.144;8.176;2022-12-18T00:18:31;-7.80;99.90
17442;DHT22;8838;50.144;8.176;2022-12-18T00:20:59;-7.80;99.90
17442;DHT22;8838;50.144;8.176;2022-12-18T00:23:26;-7.80;99.90
17442;DHT22;8838;50.144;8.176;2022-12-18T00:25:53;-7.80;99.90
17442;DHT22;8838;50.144;8.176;2022-12-18T00:28:21;-7.70;99.90
17442;DHT22;8838;50.144;8.176;2022-12-18T00:30:48;-7.80;99.90
17442;DHT22;8838;50.144;8.176;2022-12-18T00:33:17;-7.90;99.90
17442;DHT22;8838;50.144;8.176;2022-12-18T00:35:44;-7.90;99.90
17442;DHT22;8838;50.144;8.176;2022-12-18T00:38:10;-7.90;99.90
17442;DHT22;8838;50.144;8.176;2022-12-18T00:40:37;-7.90;99.90
17442;DHT22;8838;50.144;8.176;2022-12-18T00:43:04;-7.90;99.90
17442;DHT22;8838;50.144;8.176;2022-12-18T00:45:31;-8.00;99.90
17442;DHT22;8838;50.144;8.176;2022-12-18T00:47:58;-8.00;99.90
17442;DHT22;8838;50.144;8.176;2022-12-18T00:50:25;-7.90;99.90
17442;DHT22;8838;50.144;8.176;2022-12-18T00:52:52;-7.90;99.90
17442;DHT22;8838;50.144;8.176;2022-12-18T00:55:19;-7.90;99.90
17442;DHT22;8838;50.144;8.176;2022-12-18T00:57:46;-7.90;99.90
17442;DHT22;8838;50.144;8.176;2022-12-18T01:00:14;-7.90;99.90
17442;DHT22;8838;50.144;8.176;2022-12-18T01:02:42;-7.80;99.90
17442;DHT22;8838;50.144;8.176;2022-12-18T01:05:10;-7.80;99.90
17442;DHT22;8838;50.144;8.176;2022-12-18T01:07:37;-7.90;99.90
17442;DHT22;8838;50.144;8.176;2022-12-18T01:10:05;-7.80;99.90
17442;DHT22;8838;50.144;8.176;2022-12-18T01:12:33;-7.90;99.90
17442;DHT22;8838;50.144;8.176;2022-12-18T01:15:00;-7.90;99.90
17442;DHT22;8838;50.144;8.176;2022-12-18T01:17:26;-7.90;99.90
17442;DHT22;8838;50.144;8.176;2022-12-18T01:19:54;-8.00;99.90
17442;DHT22;8838;50.144;8.176;2022-12-18T01:22:21;-8.00;99.90
17442;DHT22;8838;50.144;8.176;2022-12-18T01:24:48;-8.00;99.90
17442;DHT22;8838;50.144;8.176;2022-12-18T01:27:15;-7.90;99.90
17442;DHT22;8838;50.144;8.176;2022-12-18T01:29:42;-8.00;99.90
17442;DHT22;8838;50.144;8.176;2022-12-18T01:32:09;-7.90;99.90
17442;DHT22;8838;50.144;8.176;2022-12-18T01:34:36;-7.90;99.90
17442;DHT22;8838;50.144;8.176;2022-12-18T01:37:05;-7.90;99.90
17442;DHT22;8838;50.144;8.176;2022-12-18T01:39:32;-7.90;99.90
17442;DHT22;8838;50.144;8.176;2022-12-18T01:41:59;-7.80;99.90
17442;DHT22;8838;50.144;8.176;2022-12-18T01:44:58;-7.70;99.90
17442;DHT22;8838;50.144;8.176;2022-12-18T01:47:28;-7.70;99.90
17442;DHT22;8838;50.144;8.176;2022-12-18T01:49:57;-7.80;99.90
17442;DHT22;8838;50.144;8.176;2022-12-18T01:52:29;-7.80;99.90
17442;DHT22;8838;50.144;8.176;2022-12-18T01:54:57;-7.90;99.90
17442;DHT22;8838;50.144;8.176;2022-12-18T01:57:25;-7.90;99.90
17442;DHT22;8838;50.144;8.176;2022-12-18T01:59:53;-8.00;99.90
17442;DHT22;8838;50.144;8.176;2022-12-18T02:02:22;-8.00;99.90
17442;DHT22;8838;50.144;8.176;2022-12-18T02:04:49;-8.00;99.90
17442;DHT22;8838;50.144;8.176;2022-12-18T02:07:23;-8.10;99.90
17442;DHT22;8838;50.144;8.176;2022-12-18T02:09:58;-8.00;99.90
17442;DHT22;8838;50.144;8.176;2022-12-18T02:12:30;-8.10;99.90
17442;DHT22;8838;50.144;8.176;2022-12-18T02:15:08;-8.10;99.90
17442;DHT22;8838;50.144;8.176;2022-12-18T02:17:38;-8.00;99.90
17442;DHT22;8838;50.144;8.176;2022-12-18T02:20:13;-7.80;99.90
17442;DHT22;8838;50.144;8.176;2022-12-18T02:22:51;-7.70;99.90
17442;DHT22;8838;50.144;8.176;2022-12-18T02:25:33;-7.70;99.90
17442;DHT22;8838;50.144;8.176;2022-12-18T02:28:09;-7.60;99.90
17442;DHT22;8838;50.144;8.176;2022-12-18T02:30:39;-7.60;99.90
17442;DHT22;8838;50.144;8.176;2022-12-18T02:33:08;-7.60;99.90
17442;DHT22;8838;50.144;8.176;2022-12-18T02:35:36;-7.50;99.90
17442;DHT22;8838;50.144;8.176;2022-12-18T02:38:04;-7.40;99.90
17442;DHT22;8838;50.144;8.176;2022-12-18T02:40:31;-7.20;99.90
17442;DHT22;8838;50.144;8.176;2022-12-18T02:43:03;-7.20;99.90
17442;DHT22;8838;50.144;8.176;2022-12-18T02:45:31;-7.20;99.90
17442;DHT22;8838;50.144;8.176;2022-12-18T02:47:58;-7.20;99.90
17442;DHT22;8838;50.144;8.176;2022-12-18T02:50:32;-7.30;99.90
17442;DHT22;8838;50.144;8.176;2022-12-18T02:53:08;-7.30;99.90
17442;DHT22;8838;50.144;8.176;2022-12-18T02:55:45;-7.40;99.90
17442;DHT22;8838;50.144;8.176;2022-12-18T02:58:23;-7.30;99.90
17442;DHT22;8838;50.144;8.176;2022-12-18T03:00:58;-7.30;99.90
17442;DHT22;8838;50.144;8.176;2022-12-18T03:03:31;-7.20;99.90
17442;DHT22;8838;50.144;8.176;2022-12-18T03:06:03;-7.30;99.90
17442;DHT22;8838;50.144;8.176;2022-12-18T03:08:35;-7.30;99.90
17442;DHT22;8838;50.144;8.176;2022-12-18T03:11:07;-7.30;99.90
17442;DHT22;8838;50.144;8.176;2022-12-18T03:13:37;-7.20;99.90
17442;DHT22;8838;50.144;8.176;2022-12-18T03:16:10;-7.20;99.90
17442;DHT22;8838;50.144;8.176;2022-12-18T03:18:41;-7.10;99.90
17442;DHT22;8838;50.144;8.176;2022-12-18T03:21:10;-7.10;99.90
17442;DHT22;8838;50.144;8.176;2022-12-18T03:23:40;-7.10;99.90
17442;DHT22;8838;50.144;8.176;2022-12-18T03:26:10;-7.10;99.90
17442;DHT22;8838;50.144;8.176;2022-12-18T03:28:43;-7.20;99.90
17442;DHT22;8838;50.144;8.176;2022-12-18T03:31:14;-7.10;99.90
17442;DHT22;8838;50.144;8.176;2022-12-18T03:33:45;-7.10;99.90
17442;DHT22;8838;50.144;8.176;2022-12-18T03:36:13;-7.10;99.90
17442;DHT22;8838;50.144;8.176;2022-12-18T03:38:40;-7.00;99.90
17442;DHT22;8838;50.144;8.176;2022-12-18T03:41:14;-7.00;99.90
17442;DHT22;8838;50.144;8.176;2022-12-18T03:43:48;-7.00;99.90
17442;DHT22;8838;50.144;8.176;2022-12-18T03:46:25;-7.10;99.90
17442;DHT22;8838;50.144;8.176;2022-12-18T03:48:59;-7.10;99.90
17442;DHT22;8838;50.144;8.176;2022-12-18T03:51:35;-7.10;99.90
17442;DHT22;8838;50.144;8.176;2022-12-18T03:54:05;-7.20;99.90
17442;DHT22;8838;50.144;8.176;2022-12-18T03:56:36;-7.30;99.90
17442;DHT22;8838;50.144;8.176;2022-12-18T03:59:05;-7.20;99.90
17442;DHT22;8838;50.144;8.176;2022-12-18T04:01:39;-7.20;99.90
17442;DHT22;8838;50.144;8.176;2022-12-18T04:04:08;-7.10;99.90
17442;DHT22;8838;50.144;8.176;2022-12-18T04:06:37;-7.00;99.90
17442;DHT22;8838;50.144;8.176;2022-12-18T04:09:05;-7.00;99.90
17442;DHT22;8838;50.144;8.176;2022-12-18T04:11:32;-7.00;99.90
17442;DHT22;8838;50.144;8.176;2022-12-18T04:13:59;-6.90;99.90
17442;DHT22;8838;50.144;8.176;2022-12-18T04:16:26;-6.90;99.90
17442;DHT22;8838;50.144;8.176;2022-12-18T04:18:55;-6.80;99.90
17442;DHT22;8838;50.144;8.176;2022-12-18T04:21:22;-6.80;99.90
17442;DHT22;8838;50.144;8.176;2022-12-18T04:23:49;-6.90;99.90
17442;DHT22;8838;50.144;8.176;2022-12-18T04:26:15;-6.80;99.90
17442;DHT22;8838;50.144;8.176;2022-12-18T04:28:42;-6.80;99.90
17442;DHT22;8838;50.144;8.176;2022-12-18T04:31:09;-6.80;99.90
17442;DHT22;8838;50.144;8.176;2022-12-18T04:33:36;-6.80;99.90
17442;DHT22;8838;50.144;8.176;2022-12-18T04:36:05;-6.80;99.90
17442;DHT22;8838;50.144;8.176;2022-12-18T04:38:32;-6.70;99.90
17442;DHT22;8838;50.144;8.176;2022-12-18T04:40:58;-6.70;99.90
17442;DHT22;8838;50.144;8.176;2022-12-18T04:43:25;-6.60;99.90
17442;DHT22;8838;50.144;8.176;2022-12-18T04:45:52;-6.60;99.90
17442;DHT22;8838;50.144;8.176;2022-12-18T04:48:20;-6.50;99.90
17442;DHT22;8838;50.144;8.176;2022-12-18T04:50:47;-6.40;99.90
17442;DHT22;8838;50.144;8.176;2022-12-18T04:53:15;-6.40;99.90
17442;DHT22;8838;50.144;8.176;2022-12-18T04:55:41;-6.40;99.90
17442;DHT22;8838;50.144;8.176;2022-12-18T04:58:08;-6.40;99.90
17442;DHT22;8838;50.144;8.176;2022-12-18T05:00:35;-6.40;99.90
17442;DHT22;8838;50.144;8.176;2022-12-18T05:03:02;-6.40;99.90
17442;DHT22;8838;50.144;8.176;2022-12-18T05:05:29;-6.40;99.90
17442;DHT22;8838;50.144;8.176;2022-12-18T05:07:56;-6.30;99.90
17442;DHT22;8838;50.144;8.176;2022-12-18T05:10:24;-6.10;99.90
17442;DHT22;8838;50.144;8.176;2022-12-18T05:12:51;-6.00;99.90
17442;DHT22;8838;50.144;8.176;2022-12-18T05:15:28;-6.00;99.90
17442;DHT22;8838;50.144;8.176;2022-12-18T05:17:55;-5.90;99.90
17442;DHT22;8838;50.144;8.176;2022-12-18T05:20:22;-5.80;99.90
17442;DHT22;8838;50.144;8.176;2022-12-18T05:22:50;-5.90;99.90
17442;DHT22;8838;50.144;8.176;2022-12-18T05:25:18;-5.90;99.90
17442;DHT22;8838;50.144;8.176;2022-12-18T05:27:46;-5.90;99.90
17442;DHT22;8838;50.144;8.176;2022-12-18T05:30:14;-5.90;99.90
17442;DHT22;8838;50.144;8.176;2022-12-18T05:32:42;-5.90;99.90
17442;DHT22;8838;50.144;8.176;2022-12-18T05:35:10;-5.90;99.90
17442;DHT22;8838;50.144;8.176;2022-12-18T05:37:37;-5.80;99.90
17442;DHT22;8838;50.144;8.176;2022-12-18T05:40:05;-5.80;99.90
17442;DHT22;8838;50.144;8.176;2022-12-18T05:42:32;-5.70;99.90
17442;DHT22;8838;50.144;8.176;2022-12-18T05:45:00;-5.70;99.90
17442;DHT22;8838;50.144;8.176;2022-12-18T05:47:27;-5.80;99.90
17442;DHT22;8838;50.144;8.176;2022-12-18T05:49:54;-5.70;99.90
17442;DHT22;8838;50.144;8.176;2022-12-18T05:52:21;-5.70;99.90
17442;DHT22;8838;50.144;8.176;2022-12-18T05:54:48;-5.70;99.90
17442;DHT22;8838;50.144;8.176;2022-12-18T05:57:15;-5.70;99.90
17442;DHT22;8838;50.144;8.176;2022-12-18T05:59:41;-5.60;99.90
17442;DHT22;8838;50.144;8.176;2022-12-18T06:02:10;-5.60;99.90
17442;DHT22;8838;50.144;8.176;2022-12-18T06:04:37;-5.60;99.90
17442;DHT22;8838;50.144;8.176;2022-12-18T06:07:03;-5.70;99.90
17442;DHT22;8838;50.144;8.176;2022-12-18T06:09:30;-5.70;99.90
17442;DHT22;8838;50.144;8.176;2022-12-18T06:11:57;-5.70;99.90
17442;DHT22;8838;50.144;8.176;2022-12-18T06:14:24;-5.70;99.90
17442;DHT22;8838;50.144;8.176;2022-12-18T06:16:51;-5.70;99.90
17442;DHT22;8838;50.144;8.176;2022-12-18T06:19:19;-5.80;99.90
17442;DHT22;8838;50.144;8.176;2022-12-18T06:21:46;-5.80;99.90
17442;DHT22;8838;50.144;8.176;2022-12-18T06:24:14;-5.60;99.90
17442;DHT22;8838;50.144;8.176;2022-12-18T06:26:41;-5.60;99.90
17442;DHT22;8838;50.144;8.176;2022-12-18T06:29:08;-5.60;99.90
17442;DHT22;8838;50.144;8.176;2022-12-18T06:31:35;-5.70;99.90
17442;DHT22;8838;50.144;8.176;2022-12-18T06:34:03;-5.70;99.90
17442;DHT22;8838;50.144;8.176;2022-12-18T06:36:31;-5.70;99.90
17442;DHT22;8838;50.144;8.176;2022-12-18T06:38:58;-5.70;99.90
17442;DHT22;8838;50.144;8.176;2022-12-18T06:41:25;-5.70;99.90
17442;DHT22;8838;50.144;8.176;2022-12-18T06:43:52;-5.70;99.90
17442;DHT22;8838;50.144;8.176;2022-12-18T06:46:19;-5.70;99.90
17442;DHT22;8838;50.144;8.176;2022-12-18T06:48:50;-5.70;99.90
17442;DHT22;8838;50.144;8.176;2022-12-18T06:51:18;-5.70;99.90
17442;DHT22;8838;50.144;8.176;2022-12-18T06:53:47;-5.70;99.90
17442;DHT22;8838;50.144;8.176;2022-12-18T06:56:14;-5.70;99.90
17442;DHT22;8838;50.144;8.176;2022-12-18T06:58:40;-5.70;99.90
17442;DHT22;8838;50.144;8.176;2022-12-18T07:01:10;-5.70;99.90
17442;DHT22;8838;50.144;8.176;2022-12-18T07:03:38;-5.70;99.90
17442;DHT22;8838;50.144;8.176;2022-12-18T07:06:05;-5.70;99.90
17442;DHT22;8838;50.144;8.176;2022-12-18T07:08:32;-5.70;99.90
17442;DHT22;8838;50.144;8.176;2022-12-18T07:11:03;-5.70;99.90
17442;DHT22;8838;50.144;8.176;2022-12-18T07:13:29;-5.70;99.90
17442;DHT22;8838;50.144;8.176;2022-12-18T07:16:04;-5.70;99.90
17442;DHT22;8838;50.144;8.176;2022-12-18T07:18:30;-5.70;99.90
17442;DHT22;8838;50.144;8.176;2022-12-18T07:20:57;-5.70;99.90
17442;DHT22;8838;50.144;8.176;2022-12-18T07:23:24;-5.70;99.90
17442;DHT22;8838;50.144;8.176;2022-12-18T07:25:51;-5.70;99.90
17442;DHT22;8838;50.144;8.176;2022-12-18T07:28:19;-5.70;99.90
17442;DHT22;8838;50.144;8.176;2022-12-18T07:30:46;-5.80;99.90
17442;DHT22;8838;50.144;8.176;2022-12-18T07:33:13;-5.80;99.90
17442;DHT22;8838;50.144;8.176;2022-12-18T07:35:39;-5.80;99.90
17442;DHT22;8838;50.144;8.176;2022-12-18T07:38:06;-5.70;99.90
17442;DHT22;8838;50.144;8.176;2022-12-18T07:40:33;-5.70;99.90
17442;DHT22;8838;50.144;8.176;2022-12-18T07:43:00;-5.70;99.90
17442;DHT22;8838;50.144;8.176;2022-12-18T07:45:29;-5.60;99.90
17442;DHT22;8838;50.144;8.176;2022-12-18T07:47:56;-5.50;99.90
17442;DHT22;8838;50.144;8.176;2022-12-18T07:50:23;-5.50;99.90
17442;DHT22;8838;50.144;8.176;2022-12-18T07:52:50;-5.40;99.90
17442;DHT22;8838;50.144;8.176;2022-12-18T07:55:17;-5.30;99.90
17442;DHT22;8838;50.144;8.176;2022-12-18T07:57:44;-5.10;99.90
17442;DHT22;8838;50.144;8.176;2022-12-18T08:00:12;-5.00;99.90
17442;DHT22;8838;50.144;8.176;2022-12-18T08:02:41;-5.00;99.90
17442;DHT22;8838;50.144;8.176;2022-12-18T08:05:08;-5.00;99.90
17442;DHT22;8838;50.144;8.176;2022-12-18T08:07:35;-5.00;99.90
17442;DHT22;8838;50.144;8.176;2022-12-18T08:10:03;-5.00;99.90
17442;DHT22;8838;50.144;8.176;2022-12-18T08:12:29;-5.00;99.90
17442;DHT22;8838;50.144;8.176;2022-12-18T08:14:56;-5.10;99.90
17442;DHT22;8838;50.144;8.176;2022-12-18T08:17:23;-5.20;99.90
17442;DHT22;8838;50.144;8.176;2022-12-18T08:19:51;-5.10;99.90
17442;DHT22;8838;50.144;8.176;2022-12-18T08:22:18;-5.10;99.90
17442;DHT22;8838;50.144;8.176;2022-12-18T08:24:45;-5.20;99.90
17442;DHT22;8838;50.144;8.176;2022-12-18T08:27:12;-5.20;99.90
17442;DHT22;8838;50.144;8.176;2022-12-18T08:29:39;-5.20;99.90
17442;DHT22;8838;50.144;8.176;2022-12-18T08:32:06;-5.20;99.90
17442;DHT22;8838;50.144;8.176;2022-12-18T08:34:33;-5.20;99.90
17442;DHT22;8838;50.144;8.176;2022-12-18T08:37:02;-5.20;99.90
17442;DHT22;8838;50.144;8.176;2022-12-18T08:39:28;-5.20;99.90
17442;DHT22;8838;50.144;8.176;2022-12-18T08:41:55;-5.30;99.90
17442;DHT22;8838;50.144;8.176;2022-12-18T08:44:40;-5.20;99.90
17442;DHT22;8838;50.144;8.176;2022-12-18T08:47:07;-5.30;99.90
17442;DHT22;8838;50.144;8.176;2022-12-18T08:49:35;-5.30;99.90
17442;DHT22;8838;50.144;8.176;2022-12-18T08:52:03;-5.30;99.90
17442;DHT22;8838;50.144;8.176;2022-12-18T08:54:30;-5.30;99.90
17442;DHT22;8838;50.144;8.176;2022-12-18T08:56:57;-5.30;99.90
17442;DHT22;8838;50.144;8.176;2022-12-18T08:59:24;-5.30;99.90
17442;DHT22;8838;50.144;8.176;2022-12-18T09:01:54;-5.30;99.90
17442;DHT22;8838;50.144;8.176;2022-12-18T09:04:20;-5.30;99.90
17442;DHT22;8838;50.144;8.176;2022-12-18T09:06:47;-5.20;99.90
17442;DHT22;8838;50.144;8.176;2022-12-18T09:09:16;-5.00;99.90
17442;DHT22;8838;50.144;8.176;2022-12-18T09:11:43;-4.60;99.90
17442;DHT22;8838;50.144;8.176;2022-12-18T09:14:10;-4.30;99.90
17442;DHT22;8838;50.144;8.176;2022-12-18T09:16:37;-4.10;99.90
17442;DHT22;8838;50.144;8.176;2022-12-18T09:19:04;-4.10;99.90
17442;DHT22;8838;50.144;8.176;2022-12-18T09:21:34;-4.00;99.90
17442;DHT22;8838;50.144;8.176;2022-12-18T09:24:01;-3.70;99.90
17442;DHT22;8838;50.144;8.176;2022-12-18T09:26:34;-3.40;99.90
17442;DHT22;8838;50.144;8.176;2022-12-18T09:29:02;-3.30;99.90
17442;DHT22;8838;50.144;8.176;2022-12-18T09:31:33;-3.30;99.90
17442;DHT22;8838;50.144;8.176;2022-12-18T09:34:01;-3.10;99.90
17442;DHT22;8838;50.144;8.176;2022-12-18T09:36:28;-3.30;99.90
17442;DHT22;8838;50.144;8.176;2022-12-18T09:38:55;-3.20;99.90
17442;DHT22;8838;50.144;8.176;2022-12-18T09:41:42;-3.20;99.90
17442;DHT22;8838;50.144;8.176;2022-12-18T09:44:18;-3.20;99.90
17442;DHT22;8838;50.144;8.176;2022-12-18T09:46:49;-3.30;99.90
17442;DHT22;8838;50.144;8.176;2022-12-18T09:49:20;-3.40;99.90
17442;DHT22;8838;50.144;8.176;2022-12-18T09:51:52;-3.60;99.90
17442;DHT22;8838;50.144;8.176;2022-12-18T09:54:22;-3.70;99.90
17442;DHT22;8838;50.144;8.176;2022-12-18T09:56:54;-3.80;99.90
17442;DHT22;8838;50.144;8.176;2022-12-18T09:59:24;-4.00;99.90
17442;DHT22;8838;50.144;8.176;2022-12-18T10:01:56;-4.00;99.90
17442;DHT22;8838;50.144;8.176;2022-12-18T10:04:23;-3.90;99.90
17442;DHT22;8838;50.144;8.176;2022-12-18T10:06:56;-4.10;99.90
17442;DHT22;8838;50.144;8.176;2022-12-18T10:09:29;-4.20;99.90
17442;DHT22;8838;50.144;8.176;2022-12-18T10:12:06;-4.40;99.90
17442;DHT22;8838;50.144;8.176;2022-12-18T10:14:41;-4.30;99.90
17442;DHT22;8838;50.144;8.176;2022-12-18T10:17:25;-4.10;99.90
17442;DHT22;8838;50.144;8.176;2022-12-18T10:19:55;-4.00;99.90
17442;DHT22;8838;50.144;8.176;2022-12-18T10:22:32;-4.00;99.90
17442;DHT22;8838;50.144;8.176;2022-12-18T10:25:05;-4.00;99.90
17442;DHT22;8838;50.144;8.176;2022-12-18T10:27:34;-4.10;99.90
17442;DHT22;8838;50.144;8.176;2022-12-18T10:30:07;-4.00;99.90
17442;DHT22;8838;50.144;8.176;2022-12-18T10:32:39;-4.00;99.90
17442;DHT22;8838;50.144;8.176;2022-12-18T10:35:14;-3.90;99.90
17442;DHT22;8838;50.144;8.176;2022-12-18T10:38:07;-3.80;99.90
17442;DHT22;8838;50.144;8.176;2022-12-18T10:40:52;-3.80;99.90
17442;DHT22;8838;50.144;8.176;2022-12-18T10:43:25;-4.00;99.90
17442;DHT22;8838;50.144;8.176;2022-12-18T10:46:19;-4.00;99.90
17442;DHT22;8838;50.144;8.176;2022-12-18T10:48:53;-3.90;99.90
17442;DHT22;8838;50.144;8.176;2022-12-18T10:51:23;-3.90;99.90
17442;DHT22;8838;50.144;8.176;2022-12-18T10:53:54;-3.80;99.90
17442;DHT22;8838;50.144;8.176;2022-12-18T10:56:24;-3.90;99.90
17442;DHT22;8838;50.144;8.176;2022-12-18T10:58:59;-3.90;99.90
17442;DHT22;8838;50.144;8.176;2022-12-18T11:01:26;-4.10;99.90
17442;DHT22;8838;50.144;8.176;2022-12-18T11:04:02;-4.10;99.90
17442;DHT22;8838;50.144;8.176;2022-12-18T11:06:34;-4.20;99.90
17442;DHT22;8838;50.144;8.176;2022-12-18T11:09:03;-4.40;99.90
17442;DHT22;8838;50.144;8.176;2022-12-18T11:11:30;-4.40;99.90
17442;DHT22;8838;50.144;8.176;2022-12-18T11:14:02;-4.40;99.90
17442;DHT22;8838;50.144;8.176;2022-12-18T11:16:34;-4.50;99.90
17442;DHT22;8838;50.144;8.176;2022-12-18T11:19:17;-4.50;99.90
17442;DHT22;8838;50.144;8.176;2022-12-18T11:21:45;-4.40;99.90
17442;DHT22;8838;50.144;8.176;2022-12-18T11:24:20;-4.50;99.90
17442;DHT22;8838;50.144;8.176;2022-12-18T11:26:49;-4.50;99.90
17442;DHT22;8838;50.144;8.176;2022-12-18T11:29:33;-4.50;99.90
17442;DHT22;8838;50.144;8.176;2022-12-18T11:32:27;-4.60;99.90
17442;DHT22;8838;50.144;8.176;2022-12-18T11:35:10;-4.50;99.90
17442;DHT22;8838;50.144;8.176;2022-12-18T11:37:39;-4.40;99.90
17442;DHT22;8838;50.144;8.176;2022-12-18T11:40:13;-4.40;99.90
17442;DHT22;8838;50.144;8.176;2022-12-18T11:42:50;-4.50;99.90
17442;DHT22;8838;50.144;8.176;2022-12-18T11:45:31;-4.60;99.90
17442;DHT22;8838;50.144;8.176;2022-12-18T11:48:04;-4.70;99.90
17442;DHT22;8838;50.144;8.176;2022-12-18T11:50:46;-4.90;99.90
17442;DHT22;8838;50.144;8.176;2022-12-18T11:53:15;-4.90;99.90
17442;DHT22;8838;50.144;8.176;2022-12-18T11:55:58;-4.80;99.90
17442;DHT22;8838;50.144;8.176;2022-12-18T11:58:43;-4.70;99.90
17442;DHT22;8838;50.144;8.176;2022-12-18T12:01:22;-4.70;99.90
17442;DHT22;8838;50.144;8.176;2022-12-18T12:04:10;-4.50;99.90
17442;DHT22;8838;50.144;8.176;2022-12-18T12:06:51;-4.40;99.90
17442;DHT22;8838;50.144;8.176;2022-12-18T12:09:26;-4.40;99.90
17442;DHT22;8838;50.144;8.176;2022-12-18T12:12:09;-4.50;99.90
17442;DHT22;8838;50.144;8.176;2022-12-18T12:14:47;-4.90;99.90
17442;DHT22;8838;50.144;8.176;2022-12-18T12:17:27;-5.00;99.90
17442;DHT22;8838;50.144;8.176;2022-12-18T12:20:02;-5.00;99.90
17442;DHT22;8838;50.144;8.176;2022-12-18T12:22:37;-5.00;99.90
17442;DHT22;8838;50.144;8.176;2022-12-18T12:25:19;-5.20;99.90
17442;DHT22;8838;50.144;8.176;2022-12-18T12:27:55;-5.40;99.90
17442;DHT22;8838;50.144;8.176;2022-12-18T12:30:30;-5.40;99.90
17442;DHT22;8838;50.144;8.176;2022-12-18T12:33:12;-5.50;99.90
17442;DHT22;8838;50.144;8.176;2022-12-18T12:35:52;-5.40;99.90
17442;DHT22;8838;50.144;8.176;2022-12-18T12:38:25;-5.50;99.90
17442;DHT22;8838;50.144;8.176;2022-12-18T12:40:57;-5.60;99.90
17442;DHT22;8838;50.144;8.176;2022-12-18T12:43:32;-5.50;99.90
17442;DHT22;8838;50.144;8.176;2022-12-18T12:46:00;-5.60;99.90
17442;DHT22;8838;50.144;8.176;2022-12-18T12:48:35;-5.60;99.90
17442;DHT22;8838;50.144;8.176;2022-12-18T12:51:15;-5.50;99.90
17442;DHT22;8838;50.144;8.176;2022-12-18T12:53:43;-5.50;99.90
17442;DHT22;8838;50.144;8.176;2022-12-18T12:56:13;-5.50;99.90
17442;DHT22;8838;50.144;8.176;2022-12-18T12:58:48;-5.60;99.90
17442;DHT22;8838;50.144;8.176;2022-12-18T13:01:25;-5.40;99.90
17442;DHT22;8838;50.144;8.176;2022-12-18T13:04:03;-5.30;99.90
17442;DHT22;8838;50.144;8.176;2022-12-18T13:06:40;-5.20;99.90
17442;DHT22;8838;50.144;8.176;2022-12-18T13:09:09;-5.20;99.90
17442;DHT22;8838;50.144;8.176;2022-12-18T13:11:38;-5.30;99.90
17442;DHT22;8838;50.144;8.176;2022-12-18T13:14:26;-5.30;99.90
17442;DHT22;8838;50.144;8.176;2022-12-18T13:17:26;-5.30;99.90
17442;DHT22;8838;50.144;8.176;2022-12-18T13:20:14;-5.30;99.90
17442;DHT22;8838;50.144;8.176;2022-12-18T13:22:44;-5.30;99.90
17442;DHT22;8838;50.144;8.176;2022-12-18T13:25:28;-5.50;99.90
17442;DHT22;8838;50.144;8.176;2022-12-18T13:28:10;-5.50;99.90
17442;DHT22;8838;50.144;8.176;2022-12-18T13:30:50;-5.50;99.90
17442;DHT22;8838;50.144;8.176;2022-12-18T13:33:41;-5.60;99.90
17442;DHT22;8838;50.144;8.176;2022-12-18T13:36:27;-5.60;99.90
17442;DHT22;8838;50.144;8.176;2022-12-18T13:45:37;-5.70;99.90
17442;DHT22;8838;50.144;8.176;2022-12-18T13:48:10;-5.60;99.90
17442;DHT22;8838;50.144;8.176;2022-12-18T13:50:41;-5.60;99.90
17442;DHT22;8838;50.144;8.176;2022-12-18T13:53:20;-5.60;99.90
17442;DHT22;8838;50.144;8.176;2022-12-18T13:55:49;-5.60;99.90
17442;DHT22;8838;50.144;8.176;2022-12-18T13:58:16;-5.50;99.90
17442;DHT22;8838;50.144;8.176;2022-12-18T14:00:43;-5.40;99.90
17442;DHT22;8838;50.144;8.176;2022-12-18T14:03:18;-5.60;99.90
17442;DHT22;8838;50.144;8.176;2022-12-18T14:05:46;-5.50;99.90
17442;DHT22;8838;50.144;8.176;2022-12-18T14:08:23;-5.60;99.90
17442;DHT22;8838;50.144;8.176;2022-12-18T14:10:51;-5.60;99.90
17442;DHT22;8838;50.144;8.176;2022-12-18T14:13:23;-5.60;99.90
17442;DHT22;8838;50.144;8.176;2022-12-18T14:15:51;-5.50;99.90
17442;DHT22;8838;50.144;8.176;2022-12-18T14:18:23;-5.50;99.90
17442;DHT22;8838;50.144;8.176;2022-12-18T14:20:51;-5.50;99.90
17442;DHT22;8838;50.144;8.176;2022-12-18T14:23:36;-5.50;99.90
17442;DHT22;8838;50.144;8.176;2022-12-18T14:26:20;-5.40;99.90
17442;DHT22;8838;50.144;8.176;2022-12-18T14:28:47;-5.50;99.90
17442;DHT22;8838;50.144;8.176;2022-12-18T14:31:18;-5.50;99.90
17442;DHT22;8838;50.144;8.176;2022-12-18T14:33:45;-5.40;99.90
17442;DHT22;8838;50.144;8.176;2022-12-18T14:36:15;-5.30;99.90
17442;DHT22;8838;50.144;8.176;2022-12-18T14:38:48;-5.40;99.90
17442;DHT22;8838;50.144;8.176;2022-12-18T14:41:22;-5.30;99.90
17442;DHT22;8838;50.144;8.176;2022-12-18T14:43:50;-5.20;99.90
17442;DHT22;8838;50.144;8.176;2022-12-18T14:46:34;-5.30;99.90
17442;DHT22;8838;50.144;8.176;2022-12-18T14:49:03;-5.20;99.90
17442;DHT22;8838;50.144;8.176;2022-12-18T14:51:32;-5.30;99.90
17442;DHT22;8838;50.144;8.176;2022-12-18T14:54:02;-5.30;99.90
17442;DHT22;8838;50.144;8.176;2022-12-18T14:56:32;-5.30;99.90
17442;DHT22;8838;50.144;8.176;2022-12-18T14:59:03;-5.30;99.90
17442;DHT22;8838;50.144;8.176;2022-12-18T15:01:33;-5.30;99.90
17442;DHT22;8838;50.144;8.176;2022-12-18T15:04:03;-5.30;99.90
17442;DHT22;8838;50.144;8.176;2022-12-18T15:06:32;-5.20;99.90
17442;DHT22;8838;50.144;8.176;2022-12-18T15:09:03;-5.20;99.90
17442;DHT22;8838;50.144;8.176;2022-12-18T15:11:42;-5.20;99.90
17442;DHT22;8838;50.144;8.176;2022-12-18T15:14:32;-5.20;99.90
17442;DHT22;8838;50.144;8.176;2022-12-18T15:17:02;-5.20;99.90
17442;DHT22;8838;50.144;8.176;2022-12-18T15:19:38;-5.30;99.90
17442;DHT22;8838;50.144;8.176;2022-12-18T15:22:18;-5.40;99.90
17442;DHT22;8838;50.144;8.176;2022-12-18T15:24:50;-5.40;99.90
17442;DHT22;8838;50.144;8.176;2022-12-18T15:27:22;-5.40;99.90
17442;DHT22;8838;50.144;8.176;2022-12-18T15:30:18;-5.40;99.90
17442;DHT22;8838;50.144;8.176;2022-12-18T15:32:47;-5.50;99.90
17442;DHT22;8838;50.144;8.176;2022-12-18T15:35:18;-5.50;99.90
17442;DHT22;8838;50.144;8.176;2022-12-18T15:37:46;-5.50;99.90
17442;DHT22;8838;50.144;8.176;2022-12-18T15:40:23;-5.50;99.90
17442;DHT22;8838;50.144;8.176;2022-12-18T15:43:09;-5.40;99.90
17442;DHT22;8838;50.144;8.176;2022-12-18T15:45:53;-5.30;99.90
17442;DHT22;8838;50.144;8.176;2022-12-18T15:48:21;-5.40;99.90
17442;DHT22;8838;50.144;8.176;2022-12-18T15:50:50;-5.40;99.90
17442;DHT22;8838;50.144;8.176;2022-12-18T15:53:18;-5.40;99.90
17442;DHT22;8838;50.144;8.176;2022-12-18T15:55:46;-5.40;99.90
17442;DHT22;8838;50.144;8.176;2022-12-18T15:58:30;-5.40;99.90
17442;DHT22;8838;50.144;8.176;2022-12-18T16:00:59;-5.40;99.90
17442;DHT22;8838;50.144;8.176;2022-12-18T16:03:26;-5.30;99.90
17442;DHT22;8838;50.144;8.176;2022-12-18T16:05:55;-5.30;99.90
17442;DHT22;8838;50.144;8.176;2022-12-18T16:08:23;-5.20;99.90
17442;DHT22;8838;50.144;8.176;2022-12-18T16:10:54;-5.20;99.90
17442;DHT22;8838;50.144;8.176;2022-12-18T16:13:21;-5.20;99.90
17442;DHT22;8838;50.144;8.176;2022-12-18T16:15:48;-5.20;99.90